sensor_id;sensor_type;location;lat;lon;timestamp;P1;durP1;ratioP1;P2;durP2;ratioP2
38034;SDS011;23841;48.524;1.342;2023-05-10T00:01:39;2.53;;;0.80;;
38034;SDS011;23841;48.524;1.342;2023-05-10T00:04:05;5.10;;;1.70;;
38034;SDS011;23841;48.524;1.342;2023-05-10T00:06:31;3.03;;;0.95;;
38034;SDS011;23841;48.524;1.342;2023-05-10T00:08:57;2.05;;;0.60;;
38034;SDS011;23841;48.524;1.342;2023-05-10T00:11:22;4.47;;;0.88;;
38034;SDS011;23841;48.524;1.342;2023-05-10T00:13:48;5.18;;;1.20;;
38034;SDS011;23841;48.524;1.342;2023-05-10T00:16:13;2.42;;;0.90;;
38034;SDS011;23841;48.524;1.342;2023-05-10T00:18:39;3.17;;;1.10;;
38034;SDS011;23841;48.524;1.342;2023-05-10T00:21:05;4.00;;;1.10;;
38034;SDS011;23841;48.524;1.342;2023-05-10T00:23:31;4.03;;;1.38;;
38034;SDS011;23841;48.524;1.342;2023-05-10T00:25:57;3.70;;;0.90;;
38034;SDS011;23841;48.524;1.342;2023-05-10T00:28:22;3.13;;;0.80;;
38034;SDS011;23841;48.524;1.342;2023-05-10T00:30:48;3.47;;;0.90;;
38034;SDS011;23841;48.524;1.342;2023-05-10T00:33:13;5.75;;;0.98;;
38034;SDS011;23841;48.524;1.342;2023-05-10T00:35:39;2.20;;;0.82;;
38034;SDS011;23841;48.524;1.342;2023-05-10T00:38:04;3.35;;;1.00;;
38034;SDS011;23841;48.524;1.342;2023-05-10T00:40:30;4.13;;;0.95;;
38034;SDS011;23841;48.524;1.342;2023-05-10T00:42:56;4.00;;;0.82;;
38034;SDS011;23841;48.524;1.342;2023-05-10T00:45:21;2.47;;;0.90;;
38034;SDS011;23841;48.524;1.342;2023-05-10T00:47:47;3.75;;;1.10;;
38034;SDS011;23841;48.524;1.342;2023-05-10T00:50:14;4.45;;;0.77;;
38034;SDS011;23841;48.524;1.342;2023-05-10T00:52:40;2.40;;;0.60;;
38034;SDS011;23841;48.524;1.342;2023-05-10T00:55:07;2.42;;;0.70;;
38034;SDS011;23841;48.524;1.342;2023-05-10T00:57:34;2.17;;;0.80;;
38034;SDS011;23841;48.524;1.342;2023-05-10T01:00:00;2.13;;;1.00;;
38034;SDS011;23841;48.524;1.342;2023-05-10T01:02:27;4.05;;;0.80;;
38034;SDS011;23841;48.524;1.342;2023-05-10T01:04:52;1.55;;;0.50;;
38034;SDS011;23841;48.524;1.342;2023-05-10T01:07:18;3.70;;;0.88;;
38034;SDS011;23841;48.524;1.342;2023-05-10T01:09:43;3.90;;;0.70;;
38034;SDS011;23841;48.524;1.342;2023-05-10T01:12:09;1.25;;;0.65;;
38034;SDS011;23841;48.524;1.342;2023-05-10T01:14:35;1.60;;;0.70;;
38034;SDS011;23841;48.524;1.342;2023-05-10T01:17:01;1.67;;;0.68;;
38034;SDS011;23841;48.524;1.342;2023-05-10T01:19:28;3.92;;;1.00;;
38034;SDS011;23841;48.524;1.342;2023-05-10T01:22:02;2.17;;;0.90;;
38034;SDS011;23841;48.524;1.342;2023-05-10T01:29:57;1.13;;;0.52;;
38034;SDS011;23841;48.524;1.342;2023-05-10T01:35:25;2.63;;;1.05;;
38034;SDS011;23841;48.524;1.342;2023-05-10T01:37:59;2.53;;;0.80;;
38034;SDS011;23841;48.524;1.342;2023-05-10T01:40:39;1.95;;;0.75;;
38034;SDS011;23841;48.524;1.342;2023-05-10T01:43:22;2.40;;;0.65;;
38034;SDS011;23841;48.524;1.342;2023-05-10T01:46:03;3.00;;;1.33;;
38034;SDS011;23841;48.524;1.342;2023-05-10T01:48:40;3.17;;;0.63;;
38034;SDS011;23841;48.524;1.342;2023-05-10T01:51:15;1.88;;;0.80;;
38034;SDS011;23841;48.524;1.342;2023-05-10T01:53:44;2.25;;;0.77;;
38034;SDS011;23841;48.524;1.342;2023-05-10T01:56:13;2.60;;;0.73;;
38034;SDS011;23841;48.524;1.342;2023-05-10T01:58:40;1.95;;;0.77;;
38034;SDS011;23841;48.524;1.342;2023-05-10T02:01:11;2.05;;;0.60;;
38034;SDS011;23841;48.524;1.342;2023-05-10T02:03:37;1.38;;;0.63;;
38034;SDS011;23841;48.524;1.342;2023-05-10T02:06:05;1.50;;;0.65;;
38034;SDS011;23841;48.524;1.342;2023-05-10T02:08:32;2.58;;;0.60;;
38034;SDS011;23841;48.524;1.342;2023-05-10T02:11:01;1.33;;;0.50;;
38034;SDS011;23841;48.524;1.342;2023-05-10T02:13:28;1.98;;;0.60;;
38034;SDS011;23841;48.524;1.342;2023-05-10T02:15:56;0.93;;;0.40;;
38034;SDS011;23841;48.524;1.342;2023-05-10T02:18:24;1.85;;;0.60;;
38034;SDS011;23841;48.524;1.342;2023-05-10T02:20:52;2.05;;;0.40;;
38034;SDS011;23841;48.524;1.342;2023-05-10T02:23:20;1.95;;;0.75;;
38034;SDS011;23841;48.524;1.342;2023-05-10T02:25:47;2.63;;;0.50;;
38034;SDS011;23841;48.524;1.342;2023-05-10T02:28:14;2.83;;;0.60;;
38034;SDS011;23841;48.524;1.342;2023-05-10T02:30:42;2.30;;;0.60;;
38034;SDS011;23841;48.524;1.342;2023-05-10T02:33:08;1.65;;;0.50;;
38034;SDS011;23841;48.524;1.342;2023-05-10T02:35:35;1.45;;;0.40;;
38034;SDS011;23841;48.524;1.342;2023-05-10T02:38:02;2.33;;;0.73;;
38034;SDS011;23841;48.524;1.342;2023-05-10T02:40:29;1.92;;;0.80;;
38034;SDS011;23841;48.524;1.342;2023-05-10T02:42:56;1.38;;;0.60;;
38034;SDS011;23841;48.524;1.342;2023-05-10T02:45:24;1.23;;;0.40;;
38034;SDS011;23841;48.524;1.342;2023-05-10T02:47:54;1.25;;;0.45;;
38034;SDS011;23841;48.524;1.342;2023-05-10T02:50:20;2.40;;;0.68;;
38034;SDS011;23841;48.524;1.342;2023-05-10T02:52:47;1.88;;;0.43;;
38034;SDS011;23841;48.524;1.342;2023-05-10T02:55:17;1.23;;;0.50;;
38034;SDS011;23841;48.524;1.342;2023-05-10T02:57:48;0.88;;;0.40;;
38034;SDS011;23841;48.524;1.342;2023-05-10T03:00:18;2.00;;;0.50;;
38034;SDS011;23841;48.524;1.342;2023-05-10T03:02:44;1.98;;;0.50;;
38034;SDS011;23841;48.524;1.342;2023-05-10T03:05:10;0.75;;;0.30;;
38034;SDS011;23841;48.524;1.342;2023-05-10T03:07:35;1.80;;;0.50;;
38034;SDS011;23841;48.524;1.342;2023-05-10T03:10:01;1.73;;;0.40;;
38034;SDS011;23841;48.524;1.342;2023-05-10T03:17:55;1.35;;;0.40;;
38034;SDS011;23841;48.524;1.342;2023-05-10T03:20:31;1.60;;;0.55;;
38034;SDS011;23841;48.524;1.342;2023-05-10T03:26:06;3.47;;;0.60;;
38034;SDS011;23841;48.524;1.342;2023-05-10T03:28:33;0.68;;;0.30;;
38034;SDS011;23841;48.524;1.342;2023-05-10T03:31:00;2.50;;;0.60;;
38034;SDS011;23841;48.524;1.342;2023-05-10T03:33:30;2.00;;;0.50;;
38034;SDS011;23841;48.524;1.342;2023-05-10T03:35:55;1.17;;;0.38;;
38034;SDS011;23841;48.524;1.342;2023-05-10T03:38:20;2.17;;;0.45;;
38034;SDS011;23841;48.524;1.342;2023-05-10T03:40:46;0.82;;;0.40;;
38034;SDS011;23841;48.524;1.342;2023-05-10T03:43:11;1.27;;;0.40;;
38034;SDS011;23841;48.524;1.342;2023-05-10T03:45:36;1.92;;;0.52;;
38034;SDS011;23841;48.524;1.342;2023-05-10T03:48:02;1.15;;;0.40;;
38034;SDS011;23841;48.524;1.342;2023-05-10T03:50:27;1.77;;;0.43;;
38034;SDS011;23841;48.524;1.342;2023-05-10T03:52:53;0.98;;;0.40;;
38034;SDS011;23841;48.524;1.342;2023-05-10T03:55:18;0.63;;;0.30;;
38034;SDS011;23841;48.524;1.342;2023-05-10T03:57:44;0.80;;;0.40;;
38034;SDS011;23841;48.524;1.342;2023-05-10T04:00:09;0.95;;;0.38;;
38034;SDS011;23841;48.524;1.342;2023-05-10T04:02:35;0.47;;;0.40;;
38034;SDS011;23841;48.524;1.342;2023-05-10T04:05:01;1.83;;;0.57;;
38034;SDS011;23841;48.524;1.342;2023-05-10T04:07:27;2.33;;;0.30;;
38034;SDS011;23841;48.524;1.342;2023-05-10T04:09:53;1.13;;;0.45;;
38034;SDS011;23841;48.524;1.342;2023-05-10T04:12:18;1.33;;;0.50;;
38034;SDS011;23841;48.524;1.342;2023-05-10T04:14:44;0.95;;;0.32;;
38034;SDS011;23841;48.524;1.342;2023-05-10T04:17:09;1.95;;;0.50;;
38034;SDS011;23841;48.524;1.342;2023-05-10T04:19:35;1.17;;;0.77;;
38034;SDS011;23841;48.524;1.342;2023-05-10T04:22:02;0.77;;;0.40;;
38034;SDS011;23841;48.524;1.342;2023-05-10T04:24:27;1.13;;;0.40;;
38034;SDS011;23841;48.524;1.342;2023-05-10T04:26:54;0.82;;;0.43;;
38034;SDS011;23841;48.524;1.342;2023-05-10T04:29:20;1.77;;;0.30;;
38034;SDS011;23841;48.524;1.342;2023-05-10T04:31:46;1.02;;;0.40;;
38034;SDS011;23841;48.524;1.342;2023-05-10T04:34:11;2.35;;;0.38;;
38034;SDS011;23841;48.524;1.342;2023-05-10T04:36:36;0.90;;;0.40;;
38034;SDS011;23841;48.524;1.342;2023-05-10T04:39:02;1.05;;;0.40;;
38034;SDS011;23841;48.524;1.342;2023-05-10T04:41:29;3.25;;;0.60;;
38034;SDS011;23841;48.524;1.342;2023-05-10T04:43:54;1.05;;;0.43;;
38034;SDS011;23841;48.524;1.342;2023-05-10T04:46:20;2.10;;;0.50;;
38034;SDS011;23841;48.524;1.342;2023-05-10T04:48:45;1.75;;;0.52;;
38034;SDS011;23841;48.524;1.342;2023-05-10T04:51:11;0.80;;;0.40;;
38034;SDS011;23841;48.524;1.342;2023-05-10T04:53:37;2.17;;;0.55;;
38034;SDS011;23841;48.524;1.342;2023-05-10T04:56:02;1.92;;;0.60;;
38034;SDS011;23841;48.524;1.342;2023-05-10T04:58:28;2.03;;;0.70;;
38034;SDS011;23841;48.524;1.342;2023-05-10T05:00:53;1.15;;;0.52;;
38034;SDS011;23841;48.524;1.342;2023-05-10T05:03:18;0.88;;;0.30;;
38034;SDS011;23841;48.524;1.342;2023-05-10T05:05:44;0.32;;;0.20;;
38034;SDS011;23841;48.524;1.342;2023-05-10T05:08:09;0.85;;;0.30;;
38034;SDS011;23841;48.524;1.342;2023-05-10T05:10:35;1.23;;;0.40;;
38034;SDS011;23841;48.524;1.342;2023-05-10T05:13:00;0.28;;;0.20;;
38034;SDS011;23841;48.524;1.342;2023-05-10T05:15:26;0.40;;;0.28;;
38034;SDS011;23841;48.524;1.342;2023-05-10T05:17:51;0.90;;;0.28;;
38034;SDS011;23841;48.524;1.342;2023-05-10T05:20:17;0.63;;;0.30;;
38034;SDS011;23841;48.524;1.342;2023-05-10T05:22:45;0.47;;;0.40;;
38034;SDS011;23841;48.524;1.342;2023-05-10T05:25:10;1.48;;;0.57;;
38034;SDS011;23841;48.524;1.342;2023-05-10T05:27:36;0.65;;;0.30;;
38034;SDS011;23841;48.524;1.342;2023-05-10T05:30:02;0.93;;;0.28;;
38034;SDS011;23841;48.524;1.342;2023-05-10T05:32:29;0.52;;;0.30;;
38034;SDS011;23841;48.524;1.342;2023-05-10T05:34:55;0.63;;;0.30;;
38034;SDS011;23841;48.524;1.342;2023-05-10T05:37:20;1.95;;;0.50;;
38034;SDS011;23841;48.524;1.342;2023-05-10T05:39:49;1.15;;;0.40;;
38034;SDS011;23841;48.524;1.342;2023-05-10T05:42:15;1.55;;;0.40;;
38034;SDS011;23841;48.524;1.342;2023-05-10T05:44:42;1.23;;;0.35;;
38034;SDS011;23841;48.524;1.342;2023-05-10T05:47:08;1.30;;;0.50;;
38034;SDS011;23841;48.524;1.342;2023-05-10T05:49:34;1.02;;;0.45;;
38034;SDS011;23841;48.524;1.342;2023-05-10T05:52:00;0.70;;;0.30;;
38034;SDS011;23841;48.524;1.342;2023-05-10T05:54:26;1.05;;;0.40;;
38034;SDS011;23841;48.524;1.342;2023-05-10T05:56:55;1.05;;;0.40;;
38034;SDS011;23841;48.524;1.342;2023-05-10T05:59:24;0.75;;;0.40;;
38034;SDS011;23841;48.524;1.342;2023-05-10T06:01:50;1.60;;;0.47;;
38034;SDS011;23841;48.524;1.342;2023-05-10T06:04:16;1.05;;;0.40;;
38034;SDS011;23841;48.524;1.342;2023-05-10T06:06:42;1.17;;;0.38;;
38034;SDS011;23841;48.524;1.342;2023-05-10T06:09:08;2.47;;;0.60;;
38034;SDS011;23841;48.524;1.342;2023-05-10T06:11:33;0.95;;;0.63;;
38034;SDS011;23841;48.524;1.342;2023-05-10T06:13:59;1.23;;;0.57;;
38034;SDS011;23841;48.524;1.342;2023-05-10T06:16:25;0.73;;;0.35;;
38034;SDS011;23841;48.524;1.342;2023-05-10T06:18:51;1.65;;;0.63;;
38034;SDS011;23841;48.524;1.342;2023-05-10T06:21:16;1.75;;;0.68;;
38034;SDS011;23841;48.524;1.342;2023-05-10T06:23:43;3.28;;;0.90;;
38034;SDS011;23841;48.524;1.342;2023-05-10T06:26:09;1.85;;;0.73;;
38034;SDS011;23841;48.524;1.342;2023-05-10T06:28:35;2.33;;;0.60;;
38034;SDS011;23841;48.524;1.342;2023-05-10T06:31:02;1.73;;;0.57;;
38034;SDS011;23841;48.524;1.342;2023-05-10T06:33:28;4.57;;;0.85;;
38034;SDS011;23841;48.524;1.342;2023-05-10T06:35:53;2.75;;;1.00;;
38034;SDS011;23841;48.524;1.342;2023-05-10T06:38:19;4.10;;;1.10;;
38034;SDS011;23841;48.524;1.342;2023-05-10T06:40:45;4.97;;;1.58;;
38034;SDS011;23841;48.524;1.342;2023-05-10T06:43:10;5.03;;;1.45;;
38034;SDS011;23841;48.524;1.342;2023-05-10T06:45:36;4.63;;;1.40;;
38034;SDS011;23841;48.524;1.342;2023-05-10T06:48:01;6.97;;;1.95;;
38034;SDS011;23841;48.524;1.342;2023-05-10T06:50:27;6.53;;;1.33;;
38034;SDS011;23841;48.524;1.342;2023-05-10T06:52:53;3.78;;;1.10;;
38034;SDS011;23841;48.524;1.342;2023-05-10T06:55:18;6.28;;;1.60;;
38034;SDS011;23841;48.524;1.342;2023-05-10T06:57:44;7.15;;;1.55;;
38034;SDS011;23841;48.524;1.342;2023-05-10T07:00:09;4.68;;;1.20;;
38034;SDS011;23841;48.524;1.342;2023-05-10T07:02:35;7.78;;;1.65;;
38034;SDS011;23841;48.524;1.342;2023-05-10T07:05:01;6.30;;;1.50;;
38034;SDS011;23841;48.524;1.342;2023-05-10T07:07:27;8.15;;;1.63;;
38034;SDS011;23841;48.524;1.342;2023-05-10T07:09:52;5.07;;;1.35;;
38034;SDS011;23841;48.524;1.342;2023-05-10T07:12:18;5.10;;;1.42;;
38034;SDS011;23841;48.524;1.342;2023-05-10T07:14:43;5.50;;;1.95;;
38034;SDS011;23841;48.524;1.342;2023-05-10T07:17:13;5.80;;;1.77;;
38034;SDS011;23841;48.524;1.342;2023-05-10T07:19:39;8.70;;;1.80;;
38034;SDS011;23841;48.524;1.342;2023-05-10T07:22:04;5.55;;;1.60;;
38034;SDS011;23841;48.524;1.342;2023-05-10T07:24:30;4.80;;;1.20;;
38034;SDS011;23841;48.524;1.342;2023-05-10T07:26:56;5.53;;;1.70;;
38034;SDS011;23841;48.524;1.342;2023-05-10T07:29:21;8.05;;;1.65;;
38034;SDS011;23841;48.524;1.342;2023-05-10T07:31:47;4.55;;;1.25;;
38034;SDS011;23841;48.524;1.342;2023-05-10T07:34:12;5.35;;;1.60;;
38034;SDS011;23841;48.524;1.342;2023-05-10T07:36:37;5.38;;;1.60;;
38034;SDS011;23841;48.524;1.342;2023-05-10T07:39:03;5.95;;;1.55;;
38034;SDS011;23841;48.524;1.342;2023-05-10T07:41:29;5.63;;;1.33;;
38034;SDS011;23841;48.524;1.342;2023-05-10T07:43:54;9.18;;;2.40;;
38034;SDS011;23841;48.524;1.342;2023-05-10T07:46:19;8.93;;;2.53;;
38034;SDS011;23841;48.524;1.342;2023-05-10T07:48:45;9.02;;;1.67;;
38034;SDS011;23841;48.524;1.342;2023-05-10T07:51:11;7.20;;;1.80;;
38034;SDS011;23841;48.524;1.342;2023-05-10T07:53:37;8.55;;;2.33;;
38034;SDS011;23841;48.524;1.342;2023-05-10T07:56:19;6.30;;;2.08;;
38034;SDS011;23841;48.524;1.342;2023-05-10T07:58:45;7.60;;;1.77;;
38034;SDS011;23841;48.524;1.342;2023-05-10T08:01:11;5.72;;;1.60;;
38034;SDS011;23841;48.524;1.342;2023-05-10T08:03:36;7.20;;;1.90;;
38034;SDS011;23841;48.524;1.342;2023-05-10T08:06:01;6.13;;;1.83;;
38034;SDS011;23841;48.524;1.342;2023-05-10T08:08:27;9.82;;;1.70;;
38034;SDS011;23841;48.524;1.342;2023-05-10T08:10:52;7.53;;;1.67;;
38034;SDS011;23841;48.524;1.342;2023-05-10T08:13:18;6.97;;;1.42;;
38034;SDS011;23841;48.524;1.342;2023-05-10T08:15:44;6.32;;;2.40;;
38034;SDS011;23841;48.524;1.342;2023-05-10T08:18:09;6.85;;;1.98;;
38034;SDS011;23841;48.524;1.342;2023-05-10T08:20:35;9.65;;;1.65;;
38034;SDS011;23841;48.524;1.342;2023-05-10T08:23:00;8.30;;;1.90;;
38034;SDS011;23841;48.524;1.342;2023-05-10T08:25:25;9.00;;;2.10;;
38034;SDS011;23841;48.524;1.342;2023-05-10T08:27:51;7.43;;;1.58;;
38034;SDS011;23841;48.524;1.342;2023-05-10T08:30:16;19.23;;;3.72;;
38034;SDS011;23841;48.524;1.342;2023-05-10T08:32:42;10.02;;;1.83;;
38034;SDS011;23841;48.524;1.342;2023-05-10T08:35:07;7.10;;;2.00;;
38034;SDS011;23841;48.524;1.342;2023-05-10T08:37:33;7.93;;;1.95;;
38034;SDS011;23841;48.524;1.342;2023-05-10T08:39:58;11.07;;;1.70;;
38034;SDS011;23841;48.524;1.342;2023-05-10T08:42:23;6.07;;;1.58;;
38034;SDS011;23841;48.524;1.342;2023-05-10T08:44:53;5.00;;;1.42;;
38034;SDS011;23841;48.524;1.342;2023-05-10T08:47:20;6.65;;;1.60;;
38034;SDS011;23841;48.524;1.342;2023-05-10T08:49:47;7.65;;;1.63;;
38034;SDS011;23841;48.524;1.342;2023-05-10T08:52:16;8.60;;;1.70;;
38034;SDS011;23841;48.524;1.342;2023-05-10T08:54:43;7.75;;;1.88;;
38034;SDS011;23841;48.524;1.342;2023-05-10T08:57:09;6.80;;;1.45;;
38034;SDS011;23841;48.524;1.342;2023-05-10T08:59:35;9.13;;;1.95;;
38034;SDS011;23841;48.524;1.342;2023-05-10T09:02:04;9.18;;;1.80;;
38034;SDS011;23841;48.524;1.342;2023-05-10T09:04:31;5.05;;;1.85;;
38034;SDS011;23841;48.524;1.342;2023-05-10T09:06:56;4.53;;;1.65;;
38034;SDS011;23841;48.524;1.342;2023-05-10T09:09:22;9.30;;;2.05;;
38034;SDS011;23841;48.524;1.342;2023-05-10T09:11:49;9.70;;;1.88;;
38034;SDS011;23841;48.524;1.342;2023-05-10T09:14:14;8.18;;;1.90;;
38034;SDS011;23841;48.524;1.342;2023-05-10T09:16:40;7.10;;;2.45;;
38034;SDS011;23841;48.524;1.342;2023-05-10T09:19:06;5.85;;;1.23;;
38034;SDS011;23841;48.524;1.342;2023-05-10T09:21:34;7.03;;;2.00;;
38034;SDS011;23841;48.524;1.342;2023-05-10T09:24:03;7.57;;;1.65;;
38034;SDS011;23841;48.524;1.342;2023-05-10T09:26:30;8.45;;;1.75;;
38034;SDS011;23841;48.524;1.342;2023-05-10T09:28:59;4.20;;;1.30;;
38034;SDS011;23841;48.524;1.342;2023-05-10T09:31:42;4.45;;;1.20;;
38034;SDS011;23841;48.524;1.342;2023-05-10T09:39:02;5.57;;;1.30;;
38034;SDS011;23841;48.524;1.342;2023-05-10T09:41:28;5.53;;;1.20;;
38034;SDS011;23841;48.524;1.342;2023-05-10T09:43:56;3.83;;;1.15;;
38034;SDS011;23841;48.524;1.342;2023-05-10T09:46:22;6.05;;;1.58;;
38034;SDS011;23841;48.524;1.342;2023-05-10T09:48:48;7.47;;;1.52;;
38034;SDS011;23841;48.524;1.342;2023-05-10T09:51:19;4.57;;;1.30;;
38034;SDS011;23841;48.524;1.342;2023-05-10T09:53:49;4.97;;;1.40;;
38034;SDS011;23841;48.524;1.342;2023-05-10T09:56:35;5.80;;;1.35;;
38034;SDS011;23841;48.524;1.342;2023-05-10T09:59:03;6.70;;;1.27;;
38034;SDS011;23841;48.524;1.342;2023-05-10T10:01:29;5.22;;;1.52;;
38034;SDS011;23841;48.524;1.342;2023-05-10T10:03:55;6.35;;;1.38;;
38034;SDS011;23841;48.524;1.342;2023-05-10T10:06:22;3.50;;;1.40;;
38034;SDS011;23841;48.524;1.342;2023-05-10T10:08:48;5.43;;;1.27;;
38034;SDS011;23841;48.524;1.342;2023-05-10T10:11:14;5.03;;;1.15;;
38034;SDS011;23841;48.524;1.342;2023-05-10T10:13:40;5.22;;;1.33;;
38034;SDS011;23841;48.524;1.342;2023-05-10T10:16:05;7.32;;;1.48;;
38034;SDS011;23841;48.524;1.342;2023-05-10T10:18:33;6.35;;;1.58;;
38034;SDS011;23841;48.524;1.342;2023-05-10T10:20:59;7.03;;;1.63;;
38034;SDS011;23841;48.524;1.342;2023-05-10T10:23:25;5.50;;;1.77;;
38034;SDS011;23841;48.524;1.342;2023-05-10T10:25:50;4.97;;;1.45;;
38034;SDS011;23841;48.524;1.342;2023-05-10T10:28:40;3.83;;;1.15;;
38034;SDS011;23841;48.524;1.342;2023-05-10T10:34:03;3.50;;;1.15;;
38034;SDS011;23841;48.524;1.342;2023-05-10T10:36:32;7.63;;;1.92;;
38034;SDS011;23841;48.524;1.342;2023-05-10T10:39:08;4.20;;;1.23;;
38034;SDS011;23841;48.524;1.342;2023-05-10T10:41:35;5.20;;;1.50;;
38034;SDS011;23841;48.524;1.342;2023-05-10T10:54:40;5.63;;;1.35;;
38034;SDS011;23841;48.524;1.342;2023-05-10T10:57:13;7.93;;;1.98;;
38034;SDS011;23841;48.524;1.342;2023-05-10T10:59:43;4.40;;;1.20;;
38034;SDS011;23841;48.524;1.342;2023-05-10T11:02:09;5.15;;;1.30;;
38034;SDS011;23841;48.524;1.342;2023-05-10T11:04:41;5.03;;;1.63;;
38034;SDS011;23841;48.524;1.342;2023-05-10T11:07:18;5.70;;;1.40;;
38034;SDS011;23841;48.524;1.342;2023-05-10T11:09:45;8.20;;;2.67;;
38034;SDS011;23841;48.524;1.342;2023-05-10T11:12:12;5.03;;;2.47;;
38034;SDS011;23841;48.524;1.342;2023-05-10T11:14:37;6.45;;;1.20;;
38034;SDS011;23841;48.524;1.342;2023-05-10T11:17:21;5.63;;;1.33;;
38034;SDS011;23841;48.524;1.342;2023-05-10T11:20:07;4.55;;;1.40;;
38034;SDS011;23841;48.524;1.342;2023-05-10T11:25:16;7.35;;;1.40;;
38034;SDS011;23841;48.524;1.342;2023-05-10T11:27:42;7.13;;;1.40;;
38034;SDS011;23841;48.524;1.342;2023-05-10T11:30:09;7.20;;;3.00;;
38034;SDS011;23841;48.524;1.342;2023-05-10T11:32:39;7.82;;;1.20;;
38034;SDS011;23841;48.524;1.342;2023-05-10T11:35:08;5.68;;;1.40;;
38034;SDS011;23841;48.524;1.342;2023-05-10T11:37:35;4.70;;;1.20;;
38034;SDS011;23841;48.524;1.342;2023-05-10T11:40:00;7.43;;;1.58;;
38034;SDS011;23841;48.524;1.342;2023-05-10T11:42:27;4.47;;;1.25;;
38034;SDS011;23841;48.524;1.342;2023-05-10T11:44:53;7.80;;;1.83;;
38034;SDS011;23841;48.524;1.342;2023-05-10T11:47:19;4.90;;;1.35;;
38034;SDS011;23841;48.524;1.342;2023-05-10T11:49:45;6.25;;;1.45;;
38034;SDS011;23841;48.524;1.342;2023-05-10T11:52:11;3.60;;;1.20;;
38034;SDS011;23841;48.524;1.342;2023-05-10T11:54:37;5.63;;;1.23;;
38034;SDS011;23841;48.524;1.342;2023-05-10T11:57:02;3.45;;;1.17;;
38034;SDS011;23841;48.524;1.342;2023-05-10T11:59:28;6.65;;;1.48;;
38034;SDS011;23841;48.524;1.342;2023-05-10T12:01:57;4.57;;;1.08;;
38034;SDS011;23841;48.524;1.342;2023-05-10T12:04:23;5.75;;;1.58;;
38034;SDS011;23841;48.524;1.342;2023-05-10T12:06:48;6.20;;;1.73;;
38034;SDS011;23841;48.524;1.342;2023-05-10T12:09:14;7.50;;;1.58;;
38034;SDS011;23841;48.524;1.342;2023-05-10T12:11:40;3.80;;;1.35;;
38034;SDS011;23841;48.524;1.342;2023-05-10T12:14:05;5.60;;;1.50;;
38034;SDS011;23841;48.524;1.342;2023-05-10T12:16:31;8.85;;;2.10;;
38034;SDS011;23841;48.524;1.342;2023-05-10T12:18:57;5.57;;;1.52;;
38034;SDS011;23841;48.524;1.342;2023-05-10T12:21:24;6.65;;;1.55;;
38034;SDS011;23841;48.524;1.342;2023-05-10T12:23:51;4.85;;;1.20;;
38034;SDS011;23841;48.524;1.342;2023-05-10T12:26:18;6.07;;;1.20;;
38034;SDS011;23841;48.524;1.342;2023-05-10T12:28:46;5.75;;;1.20;;
38034;SDS011;23841;48.524;1.342;2023-05-10T12:31:12;3.10;;;1.25;;
38034;SDS011;23841;48.524;1.342;2023-05-10T12:33:38;9.30;;;2.42;;
38034;SDS011;23841;48.524;1.342;2023-05-10T12:36:08;10.48;;;1.80;;
38034;SDS011;23841;48.524;1.342;2023-05-10T12:38:38;8.15;;;1.58;;
38034;SDS011;23841;48.524;1.342;2023-05-10T12:41:12;9.75;;;1.50;;
38034;SDS011;23841;48.524;1.342;2023-05-10T12:43:38;6.18;;;1.30;;
38034;SDS011;23841;48.524;1.342;2023-05-10T12:46:11;4.97;;;1.20;;
38034;SDS011;23841;48.524;1.342;2023-05-10T12:48:39;5.90;;;1.23;;
38034;SDS011;23841;48.524;1.342;2023-05-10T12:51:06;5.00;;;1.20;;
38034;SDS011;23841;48.524;1.342;2023-05-10T12:53:37;4.45;;;1.10;;
38034;SDS011;23841;48.524;1.342;2023-05-10T12:56:03;4.78;;;1.35;;
38034;SDS011;23841;48.524;1.342;2023-05-10T12:58:28;6.65;;;1.27;;
38034;SDS011;23841;48.524;1.342;2023-05-10T13:00:54;4.68;;;1.20;;
38034;SDS011;23841;48.524;1.342;2023-05-10T13:03:21;4.10;;;1.20;;
38034;SDS011;23841;48.524;1.342;2023-05-10T13:05:47;5.18;;;1.15;;
38034;SDS011;23841;48.524;1.342;2023-05-10T13:08:13;5.03;;;1.15;;
38034;SDS011;23841;48.524;1.342;2023-05-10T13:10:38;7.72;;;1.15;;
38034;SDS011;23841;48.524;1.342;2023-05-10T13:13:03;4.28;;;1.30;;
38034;SDS011;23841;48.524;1.342;2023-05-10T13:15:30;3.38;;;0.98;;
38034;SDS011;23841;48.524;1.342;2023-05-10T13:17:56;4.57;;;1.20;;
38034;SDS011;23841;48.524;1.342;2023-05-10T13:20:21;11.60;;;1.73;;
38034;SDS011;23841;48.524;1.342;2023-05-10T13:22:47;3.67;;;0.90;;
38034;SDS011;23841;48.524;1.342;2023-05-10T13:25:12;7.90;;;1.10;;
38034;SDS011;23841;48.524;1.342;2023-05-10T13:27:41;2.72;;;1.00;;
38034;SDS011;23841;48.524;1.342;2023-05-10T13:30:06;3.45;;;1.20;;
38034;SDS011;23841;48.524;1.342;2023-05-10T13:32:33;3.53;;;0.90;;
38034;SDS011;23841;48.524;1.342;2023-05-10T13:34:58;4.18;;;0.82;;
38034;SDS011;23841;48.524;1.342;2023-05-10T13:37:24;4.00;;;0.98;;
38034;SDS011;23841;48.524;1.342;2023-05-10T13:39:49;3.35;;;0.82;;
38034;SDS011;23841;48.524;1.342;2023-05-10T13:42:15;3.58;;;1.15;;
38034;SDS011;23841;48.524;1.342;2023-05-10T13:44:41;4.13;;;1.10;;
38034;SDS011;23841;48.524;1.342;2023-05-10T13:47:08;4.03;;;1.25;;
38034;SDS011;23841;48.524;1.342;2023-05-10T13:49:33;3.53;;;1.10;;
38034;SDS011;23841;48.524;1.342;2023-05-10T13:51:59;4.72;;;1.20;;
38034;SDS011;23841;48.524;1.342;2023-05-10T13:54:30;2.40;;;0.73;;
38034;SDS011;23841;48.524;1.342;2023-05-10T13:56:56;6.63;;;2.03;;
38034;SDS011;23841;48.524;1.342;2023-05-10T13:59:22;3.92;;;1.10;;
38034;SDS011;23841;48.524;1.342;2023-05-10T14:01:47;6.63;;;0.95;;
38034;SDS011;23841;48.524;1.342;2023-05-10T14:04:15;3.38;;;1.33;;
38034;SDS011;23841;48.524;1.342;2023-05-10T14:06:40;7.10;;;1.70;;
38034;SDS011;23841;48.524;1.342;2023-05-10T14:09:06;3.95;;;1.33;;
38034;SDS011;23841;48.524;1.342;2023-05-10T14:11:32;2.30;;;0.90;;
38034;SDS011;23841;48.524;1.342;2023-05-10T14:13:58;5.70;;;1.67;;
38034;SDS011;23841;48.524;1.342;2023-05-10T14:16:24;3.10;;;0.85;;
38034;SDS011;23841;48.524;1.342;2023-05-10T14:18:49;2.97;;;1.08;;
38034;SDS011;23841;48.524;1.342;2023-05-10T14:21:15;5.18;;;1.35;;
38034;SDS011;23841;48.524;1.342;2023-05-10T14:23:40;3.28;;;1.10;;
38034;SDS011;23841;48.524;1.342;2023-05-10T14:26:06;2.47;;;1.23;;
38034;SDS011;23841;48.524;1.342;2023-05-10T14:28:32;2.88;;;0.90;;
38034;SDS011;23841;48.524;1.342;2023-05-10T14:30:57;2.35;;;0.82;;
38034;SDS011;23841;48.524;1.342;2023-05-10T14:33:31;4.72;;;1.10;;
38034;SDS011;23841;48.524;1.342;2023-05-10T14:35:56;2.95;;;0.80;;
38034;SDS011;23841;48.524;1.342;2023-05-10T14:38:22;3.08;;;1.20;;
38034;SDS011;23841;48.524;1.342;2023-05-10T14:40:48;2.97;;;0.77;;
38034;SDS011;23841;48.524;1.342;2023-05-10T14:43:13;2.67;;;0.82;;
38034;SDS011;23841;48.524;1.342;2023-05-10T14:45:39;2.38;;;0.88;;
38034;SDS011;23841;48.524;1.342;2023-05-10T14:48:04;2.97;;;0.70;;
38034;SDS011;23841;48.524;1.342;2023-05-10T14:50:30;3.72;;;1.02;;
38034;SDS011;23841;48.524;1.342;2023-05-10T14:53:00;2.50;;;0.75;;
38034;SDS011;23841;48.524;1.342;2023-05-10T14:55:25;2.10;;;0.70;;
38034;SDS011;23841;48.524;1.342;2023-05-10T14:57:50;2.42;;;0.77;;
38034;SDS011;23841;48.524;1.342;2023-05-10T15:00:16;3.17;;;1.00;;
38034;SDS011;23841;48.524;1.342;2023-05-10T15:02:44;3.10;;;0.70;;
38034;SDS011;23841;48.524;1.342;2023-05-10T15:05:09;1.17;;;0.60;;
38034;SDS011;23841;48.524;1.342;2023-05-10T15:07:35;5.15;;;0.82;;
38034;SDS011;23841;48.524;1.342;2023-05-10T15:10:00;1.75;;;0.70;;
38034;SDS011;23841;48.524;1.342;2023-05-10T15:12:25;2.60;;;0.70;;
38034;SDS011;23841;48.524;1.342;2023-05-10T15:14:51;2.67;;;0.75;;
38034;SDS011;23841;48.524;1.342;2023-05-10T15:17:16;2.90;;;0.77;;
38034;SDS011;23841;48.524;1.342;2023-05-10T15:19:42;5.00;;;1.00;;
38034;SDS011;23841;48.524;1.342;2023-05-10T15:22:08;1.48;;;0.70;;
38034;SDS011;23841;48.524;1.342;2023-05-10T15:24:33;3.80;;;0.77;;